ETIK

Illesheim Air Base Heliport

Storck Barracks, Germany
METAR ETIK 151256Z AUTO 22008KT 9999 FEW026 BKN033 OVC043 05/01 A2946 RMK AO2 SLP988 T00510014 $
Observed Flight Rules
Dec-15 @ 12:56 UTC (57 minutes ago) Visual Flight Rules
Wind Visibility Clouds
220° at 8 knots 10,000+ meters
  • Few at 2,600' AGL
  • Broken at 3,300' AGL
  • Overcast at 4,300' AGL
Temperatures Readings
Current 5°C / 41°F
Dewpoint 1°C / 34°F
Humidity 76%
Altimeter 29.46" Hg
Pressure 998.8 hPa
Elevation 325
METAR ETIK 151256Z AUTO 22008KT 9999 FEW026 BKN033 OVC043 05/01 A2946 RMK AO2 SLP988 T00510014 $
Observed Flight Rules
Dec-15 @ 12:56 UTC
(57 minutes ago)
VFR
Wind Visibility
220° at 8 knots 10,000+ meters
Clouds
  • Few at 2,600' AGL
  • Broken at 3,300' AGL
  • Overcast at 4,300' AGL
Temperature Dewpoint
5°C / 41°F 1°C / 34°F
Humidity Altimeter Pressure
76% 29.46" Hg 998.8 hPa